Farmers Retreat, Indiana
Current Conditions -  °F | °C
As of 8:52 AM on Saturday 22 Nov 2014 (Local Time) from KCVG Reporting Station
Overcast Overcast  
Wind Chill:   Ceiling: 7000
Heat Index:   Visibility: 10mi
Dew Point: -2°   Wind: 9mph
Humidity: 65%   Direction: 190°S
Pressure: 30.27"   Gusts: NA
Location:  38.9645°N, 85.0582°W
Report Text: KCVG 221352Z 19008KT 10SM SCT050 BKN070 OVC090 04/M02 A3027 RMK AO2 RAB1259E14 SLP254 P0000 T00441017
Loading
Personal Weather Stations






























Interactive Weather Map New forecast layout! Learn more

10-Day Weather Forecast

Advertisements
Track Severe Weather on mobile